^^
Station Historical Data
Daily Summary for January 28, 2018 Units:  Both    English   Metric
« Previous Day
Next Day »
Daily Weekly Monthly Yearly Custom
  High: Low: Average:
Temperature: TemperatureF °F /  -17.8 °C 73.2 °F /  22.9 °C 81.2 °F /  27.3 °C
Dew Point: DewpointF °F /  -17.8 °C 41.5 °F /  5.3 °C 44.4 °F /  6.9 °C
Humidity: Humidity% 23% 27%
Wind Speed: WindSpeedMPHmph /  0km/h - -5.9mph /  -9.5km/h
Wind Gust: WindSpeedGustMPHmph /  0km/h - -
Wind- - NE
Pressure: PressureIn in /  0 hPa 29.47 in /  997.9 hPa -
Precipitation: 0.00 in /  0 mm    
Historical Graphs
 
 
Tabular Data for January 28, 2018
Time Temperature Dew Point Pressure Wind Wind Speed Wind Gust Humidity Rainfall Rate (Hourly) solar Conditions
TemperatureF °F /  -17.8 °C DewpointF °F /  -17.8 °C PressureInin /  0hPa Calm     Humidity% HourlyPrecipInin /  0mm SoftwareType W/m2 Conditions
08:44 73.4 °F /  23 °C 42.6 °F /  5.9 °C 29.59in /  1001.9hPa North -999.9mph /  -1609.1km/h -999.0mph /  -1607.7km/h 33% 0.00in /  0mm meteobridge W/m2
08:50 73.2 °F /  22.9 °C 41.5 °F /  5.3 °C 29.59in /  1001.9hPa Calm   10.0mph /  16.1km/h 32% 0.00in /  0mm meteobridge W/m2
08:56 73.8 °F /  23.2 °C 42.1 °F /  5.6 °C 29.60in /  1002.3hPa Calm   9.0mph /  14.5km/h 32% 0.00in /  0mm meteobridge W/m2
09:02 74.8 °F /  23.8 °C 42.3 °F /  5.7 °C 29.60in /  1002.3hPa South 4.0mph /  6.4km/h 4.0mph /  6.4km/h 31% 0.00in /  0mm meteobridge W/m2
09:08 76.1 °F /  24.5 °C 42.4 °F /  5.8 °C 29.60in /  1002.3hPa North 2.9mph /  4.7km/h 5.0mph /  8km/h 30% 0.00in /  0mm meteobridge W/m2
09:14 77.2 °F /  25.1 °C 43.3 °F /  6.3 °C 29.60in /  1002.3hPa NNE 4.0mph /  6.4km/h 6.0mph /  9.7km/h 30% 0.00in /  0mm meteobridge W/m2
09:20 77.2 °F /  25.1 °C 43.3 °F /  6.3 °C 29.60in /  1002.3hPa NNE 4.0mph /  6.4km/h 12.0mph /  19.3km/h 30% 0.00in /  0mm meteobridge W/m2
09:26 77.4 °F /  25.2 °C 42.6 °F /  5.9 °C 29.61in /  1002.6hPa NNW 6.9mph /  11.1km/h 11.0mph /  17.7km/h 29% 0.00in /  0mm meteobridge W/m2
09:32 77.5 °F /  25.3 °C 42.8 °F /  6 °C 29.61in /  1002.6hPa North 10.1mph /  16.3km/h 10.1mph /  16.3km/h 29% 0.00in /  0mm meteobridge W/m2
09:39 77.4 °F /  25.2 °C 42.6 °F /  5.9 °C 29.61in /  1002.6hPa NNW 6.9mph /  11.1km/h 18.0mph /  29km/h 29% 0.00in /  0mm meteobridge W/m2
09:45 78.1 °F /  25.6 °C 43.2 °F /  6.2 °C 29.61in /  1002.6hPa NNW 13.0mph /  20.9km/h 14.0mph /  22.5km/h 29% 0.00in /  0mm meteobridge W/m2
09:51 78.6 °F /  25.9 °C 43.7 °F /  6.5 °C 29.61in /  1002.6hPa North 6.9mph /  11.1km/h 10.0mph /  16.1km/h 29% 0.00in /  0mm meteobridge W/m2
09:57 78.6 °F /  25.9 °C 43.7 °F /  6.5 °C 29.61in /  1002.6hPa NW 4.9mph /  7.9km/h 11.0mph /  17.7km/h 29% 0.00in /  0mm meteobridge W/m2
10:03 78.6 °F /  25.9 °C 43.7 °F /  6.5 °C 29.61in /  1002.6hPa WSW 0.9mph /  1.4km/h 4.0mph /  6.4km/h 29% 0.00in /  0mm meteobridge W/m2
10:09 79.5 °F /  26.4 °C 43.5 °F /  6.4 °C 29.61in /  1002.6hPa North 10.1mph /  16.3km/h 10.1mph /  16.3km/h 28% 0.00in /  0mm meteobridge W/m2
10:15 79.5 °F /  26.4 °C 43.5 °F /  6.4 °C 29.61in /  1002.6hPa North 11.0mph /  17.7km/h 14.0mph /  22.5km/h 28% 0.00in /  0mm meteobridge W/m2
10:21 79.3 °F /  26.3 °C 43.3 °F /  6.3 °C 29.61in /  1002.6hPa North 8.1mph /  13km/h 12.0mph /  19.3km/h 28% 0.00in /  0mm meteobridge W/m2
10:27 79.5 °F /  26.4 °C 43.5 °F /  6.4 °C 29.60in /  1002.3hPa NNE 10.1mph /  16.3km/h 12.0mph /  19.3km/h 28% 0.00in /  0mm meteobridge W/m2
10:34 80.2 °F /  26.8 °C 44.2 °F /  6.8 °C 29.60in /  1002.3hPa Calm   7.0mph /  11.3km/h 28% 0.00in /  0mm meteobridge W/m2
10:40 80.4 °F /  26.9 °C 44.2 °F /  6.8 °C 29.60in /  1002.3hPa NNE 0.9mph /  1.4km/h 14.0mph /  22.5km/h 28% 0.00in /  0mm meteobridge W/m2
10:46 80.1 °F /  26.7 °C 44.1 °F /  6.7 °C 29.60in /  1002.3hPa NNW 4.9mph /  7.9km/h 15.0mph /  24.1km/h 28% 0.00in /  0mm meteobridge W/m2
10:52 79.5 °F /  26.4 °C 44.4 °F /  6.9 °C 29.60in /  1002.3hPa NNE 6.0mph /  9.7km/h 8.0mph /  12.9km/h 29% 0.00in /  0mm meteobridge W/m2
10:58 80.2 °F /  26.8 °C 44.2 °F /  6.8 °C 29.60in /  1002.3hPa NNE 2.9mph /  4.7km/h 11.0mph /  17.7km/h 28% 0.00in /  0mm meteobridge W/m2
11:04 80.4 °F /  26.9 °C 44.2 °F /  6.8 °C 29.60in /  1002.3hPa North 2.9mph /  4.7km/h 13.0mph /  20.9km/h 28% 0.00in /  0mm meteobridge W/m2
11:10 80.4 °F /  26.9 °C 44.2 °F /  6.8 °C 29.60in /  1002.3hPa NNE 6.0mph /  9.7km/h 10.0mph /  16.1km/h 28% 0.00in /  0mm meteobridge W/m2
11:17 80.4 °F /  26.9 °C 44.2 °F /  6.8 °C 29.60in /  1002.3hPa NE 4.9mph /  7.9km/h 8.0mph /  12.9km/h 28% 0.00in /  0mm meteobridge W/m2
11:23 81.3 °F /  27.4 °C 45.1 °F /  7.3 °C 29.59in /  1001.9hPa SE 0.9mph /  1.4km/h 5.0mph /  8km/h 28% 0.00in /  0mm meteobridge W/m2
11:29 82.6 °F /  28.1 °C 45.1 °F /  7.3 °C 29.59in /  1001.9hPa SSE 4.0mph /  6.4km/h 8.0mph /  12.9km/h 27% 0.00in /  0mm meteobridge W/m2
11:35 82.9 °F /  28.3 °C 45.5 °F /  7.5 °C 29.59in /  1001.9hPa SSW 2.9mph /  4.7km/h 9.0mph /  14.5km/h 27% 0.00in /  0mm meteobridge W/m2
11:41 82.9 °F /  28.3 °C 45.5 °F /  7.5 °C 29.58in /  1001.6hPa ESE 0.9mph /  1.4km/h 6.0mph /  9.7km/h 27% 0.00in /  0mm meteobridge W/m2
11:48 83.8 °F /  28.8 °C 45.3 °F /  7.4 °C 29.58in /  1001.6hPa Calm   4.0mph /  6.4km/h 26% 0.00in /  0mm meteobridge W/m2
11:54 84.4 °F /  29.1 °C 45.7 °F /  7.6 °C 29.58in /  1001.6hPa NNE 4.9mph /  7.9km/h 11.0mph /  17.7km/h 26% 0.00in /  0mm meteobridge W/m2
12:00 83.1 °F /  28.4 °C 44.6 °F /  7 °C 29.58in /  1001.6hPa Calm   1.0mph /  1.6km/h 26% 0.00in /  0mm meteobridge W/m2
12:06 82.9 °F /  28.3 °C 44.6 °F /  7 °C 29.58in /  1001.6hPa North 4.0mph /  6.4km/h 4.0mph /  6.4km/h 26% 0.00in /  0mm meteobridge W/m2
12:12 84.0 °F /  28.9 °C 45.5 °F /  7.5 °C 29.57in /  1001.2hPa North 17.0mph /  27.4km/h 19.0mph /  30.6km/h 26% 0.00in /  0mm meteobridge W/m2
12:18 83.8 °F /  28.8 °C 45.3 °F /  7.4 °C 29.57in /  1001.2hPa NNE 2.9mph /  4.7km/h 14.0mph /  22.5km/h 26% 0.00in /  0mm meteobridge W/m2
12:24 84.4 °F /  29.1 °C 45.7 °F /  7.6 °C 29.57in /  1001.2hPa NE 4.9mph /  7.9km/h 13.0mph /  20.9km/h 26% 0.00in /  0mm meteobridge W/m2
12:31 84.7 °F /  29.3 °C 46.0 °F /  7.8 °C 29.57in /  1001.2hPa NNE 2.9mph /  4.7km/h 3.0mph /  4.8km/h 26% 0.00in /  0mm meteobridge W/m2
12:37 87.1 °F /  30.6 °C 46.9 °F /  8.3 °C 29.56in /  1000.9hPa SE 0.9mph /  1.4km/h 6.0mph /  9.7km/h 25% 0.00in /  0mm meteobridge W/m2
12:43 87.4 °F /  30.8 °C 46.2 °F /  7.9 °C 29.56in /  1000.9hPa ENE 6.0mph /  9.7km/h 9.0mph /  14.5km/h 24% 0.00in /  0mm meteobridge W/m2
12:49 87.6 °F /  30.9 °C 46.4 °F /  8 °C 29.56in /  1000.9hPa NNE 2.9mph /  4.7km/h 9.0mph /  14.5km/h 24% 0.00in /  0mm meteobridge W/m2
12:55 86.7 °F /  30.4 °C 46.8 °F /  8.2 °C 29.57in /  1001.2hPa SE 4.9mph /  7.9km/h 7.0mph /  11.3km/h 25% 0.00in /  0mm meteobridge W/m2
13:01 85.8 °F /  29.9 °C 45.9 °F /  7.7 °C 29.56in /  1000.9hPa ENE 0.9mph /  1.4km/h 9.0mph /  14.5km/h 25% 0.00in /  0mm meteobridge W/m2
13:07 85.5 °F /  29.7 °C 46.6 °F /  8.1 °C 29.55in /  1000.6hPa ENE 0.9mph /  1.4km/h 2.0mph /  3.2km/h 26% 0.00in /  0mm meteobridge W/m2
13:13 86.7 °F /  30.4 °C 46.8 °F /  8.2 °C 29.55in /  1000.6hPa SSW 2.9mph /  4.7km/h 5.0mph /  8km/h 25% 0.00in /  0mm meteobridge W/m2
13:36 83.1 °F /  28.4 °C 45.7 °F /  7.6 °C 29.55in /  1000.6hPa South 0.9mph /  1.4km/h 3.0mph /  4.8km/h 27% 0.00in /  0mm meteobridge W/m2
13:42 83.3 °F /  28.5 °C 44.8 °F /  7.1 °C 29.55in /  1000.6hPa SW 0.9mph /  1.4km/h 4.0mph /  6.4km/h 26% 0.00in /  0mm meteobridge W/m2
13:49 82.8 °F /  28.2 °C 44.4 °F /  6.9 °C 29.54in /  1000.2hPa WSW 2.0mph /  3.2km/h 7.0mph /  11.3km/h 26% 0.00in /  0mm meteobridge W/m2
14:09 85.6 °F /  29.8 °C 45.9 °F /  7.7 °C 29.54in /  1000.2hPa SSW 4.9mph /  7.9km/h 10.0mph /  16.1km/h 25% 0.00in /  0mm meteobridge W/m2
14:15 86.5 °F /  30.3 °C 46.6 °F /  8.1 °C 29.53in /  999.9hPa SSW 11.0mph /  17.7km/h 13.0mph /  20.9km/h 25% 0.00in /  0mm meteobridge W/m2
14:21 84.9 °F /  29.4 °C 45.1 °F /  7.3 °C 29.53in /  999.9hPa SSW 6.0mph /  9.7km/h 11.0mph /  17.7km/h 25% 0.00in /  0mm meteobridge W/m2
14:27 85.8 °F /  29.9 °C 45.9 °F /  7.7 °C 29.52in /  999.5hPa SSW 4.9mph /  7.9km/h 5.0mph /  8km/h 25% 0.00in /  0mm meteobridge W/m2
14:34 88.3 °F /  31.3 °C 46.9 °F /  8.3 °C 29.52in /  999.5hPa SSE 8.1mph /  13km/h 12.0mph /  19.3km/h 24% 0.00in /  0mm meteobridge W/m2
14:40 88.9 °F /  31.6 °C 46.2 °F /  7.9 °C 29.52in /  999.5hPa South 4.0mph /  6.4km/h 10.0mph /  16.1km/h 23% 0.00in /  0mm meteobridge W/m2
14:46 88.9 °F /  31.6 °C 47.5 °F /  8.6 °C 29.52in /  999.5hPa SW 2.9mph /  4.7km/h 4.0mph /  6.4km/h 24% 0.00in /  0mm meteobridge W/m2
14:52 90.0 °F /  32.2 °C 47.1 °F /  8.4 °C 29.52in /  999.5hPa ESE 2.0mph /  3.2km/h 6.0mph /  9.7km/h 23% 0.00in /  0mm meteobridge W/m2
14:58 89.2 °F /  31.8 °C 46.6 °F /  8.1 °C 29.51in /  999.2hPa South 2.0mph /  3.2km/h 8.0mph /  12.9km/h 23% 0.00in /  0mm meteobridge W/m2
15:04 87.4 °F /  30.8 °C 46.2 °F /  7.9 °C 29.51in /  999.2hPa Calm   4.0mph /  6.4km/h 24% 0.00in /  0mm meteobridge W/m2
15:25 86.7 °F /  30.4 °C 46.8 °F /  8.2 °C 29.50in /  998.9hPa NE 2.9mph /  4.7km/h 5.0mph /  8km/h 25% 0.00in /  0mm meteobridge W/m2
15:31 87.8 °F /  31 °C 46.6 °F /  8.1 °C 29.50in /  998.9hPa SW 2.0mph /  3.2km/h 3.0mph /  4.8km/h 24% 0.00in /  0mm meteobridge W/m2
15:37 88.0 °F /  31.1 °C 45.5 °F /  7.5 °C 29.49in /  998.5hPa NW 4.9mph /  7.9km/h 13.0mph /  20.9km/h 23% 0.00in /  0mm meteobridge W/m2
15:43 87.1 °F /  30.6 °C 45.9 °F /  7.7 °C 29.49in /  998.5hPa SSE 4.0mph /  6.4km/h 7.0mph /  11.3km/h 24% 0.00in /  0mm meteobridge W/m2
15:49 85.8 °F /  29.9 °C 44.8 °F /  7.1 °C 29.49in /  998.5hPa South 2.0mph /  3.2km/h 6.0mph /  9.7km/h 24% 0.00in /  0mm meteobridge W/m2
15:55 84.6 °F /  29.2 °C 45.0 °F /  7.2 °C 29.49in /  998.5hPa South 4.0mph /  6.4km/h 7.0mph /  11.3km/h 25% 0.00in /  0mm meteobridge W/m2
16:01 83.8 °F /  28.8 °C 45.3 °F /  7.4 °C 29.49in /  998.5hPa Calm   6.0mph /  9.7km/h 26% 0.00in /  0mm meteobridge W/m2
16:08 83.5 °F /  28.6 °C 45.0 °F /  7.2 °C 29.49in /  998.5hPa SW 2.0mph /  3.2km/h 5.0mph /  8km/h 26% 0.00in /  0mm meteobridge W/m2
16:14 83.5 °F /  28.6 °C 45.0 °F /  7.2 °C 29.49in /  998.5hPa South 6.9mph /  11.1km/h 9.0mph /  14.5km/h 26% 0.00in /  0mm meteobridge W/m2
16:20 83.1 °F /  28.4 °C 44.6 °F /  7 °C 29.48in /  998.2hPa South 2.9mph /  4.7km/h 9.0mph /  14.5km/h 26% 0.00in /  0mm meteobridge W/m2
16:26 82.9 °F /  28.3 °C 44.6 °F /  7 °C 29.48in /  998.2hPa South 11.0mph /  17.7km/h 12.0mph /  19.3km/h 26% 0.00in /  0mm meteobridge W/m2
16:32 83.3 °F /  28.5 °C 44.8 °F /  7.1 °C 29.48in /  998.2hPa South 11.0mph /  17.7km/h 11.0mph /  17.7km/h 26% 0.00in /  0mm meteobridge W/m2
16:38 82.9 °F /  28.3 °C 44.6 °F /  7 °C 29.48in /  998.2hPa South 2.9mph /  4.7km/h 12.0mph /  19.3km/h 26% 0.00in /  0mm meteobridge W/m2
16:44 82.6 °F /  28.1 °C 45.1 °F /  7.3 °C 29.48in /  998.2hPa South 14.1mph /  22.7km/h 15.0mph /  24.1km/h 27% 0.00in /  0mm meteobridge W/m2
16:50 81.9 °F /  27.7 °C 44.6 °F /  7 °C 29.48in /  998.2hPa South 8.9mph /  14.3km/h 14.0mph /  22.5km/h 27% 0.00in /  0mm meteobridge W/m2
16:57 81.3 °F /  27.4 °C 45.1 °F /  7.3 °C 29.47in /  997.9hPa South 8.9mph /  14.3km/h 18.0mph /  29km/h 28% 0.00in /  0mm meteobridge W/m2
17:03 81.0 °F /  27.2 °C 44.8 °F /  7.1 °C 29.48in /  998.2hPa SSE 19.0mph /  30.6km/h 19.0mph /  30.6km/h 28% 0.00in /  0mm meteobridge W/m2
17:09 80.4 °F /  26.9 °C 45.3 °F /  7.4 °C 29.48in /  998.2hPa South 4.9mph /  7.9km/h 14.0mph /  22.5km/h 29% 0.00in /  0mm meteobridge W/m2
17:15 80.1 °F /  26.7 °C 45.0 °F /  7.2 °C 29.48in /  998.2hPa South 6.0mph /  9.7km/h 12.0mph /  19.3km/h 29% 0.00in /  0mm meteobridge W/m2
17:21 80.1 °F /  26.7 °C 45.9 °F /  7.7 °C 29.49in /  998.5hPa South 4.9mph /  7.9km/h 12.0mph /  19.3km/h 30% 0.00in /  0mm meteobridge W/m2
17:27 80.2 °F /  26.8 °C 45.1 °F /  7.3 °C 29.49in /  998.5hPa SSE 6.0mph /  9.7km/h 10.0mph /  16.1km/h 29% 0.00in /  0mm meteobridge W/m2
17:33 80.2 °F /  26.8 °C 45.1 °F /  7.3 °C 29.48in /  998.2hPa South 6.0mph /  9.7km/h 11.0mph /  17.7km/h 29% 0.00in /  0mm meteobridge W/m2
17:39 80.4 °F /  26.9 °C 45.3 °F /  7.4 °C 29.48in /  998.2hPa South 8.9mph /  14.3km/h 9.0mph /  14.5km/h 29% 0.00in /  0mm meteobridge W/m2
17:45 80.2 °F /  26.8 °C 45.1 °F /  7.3 °C 29.48in /  998.2hPa South 4.9mph /  7.9km/h 9.0mph /  14.5km/h 29% 0.00in /  0mm meteobridge W/m2
17:51 80.2 °F /  26.8 °C 45.1 °F /  7.3 °C 29.48in /  998.2hPa SSE 6.0mph /  9.7km/h 10.0mph /  16.1km/h 29% 0.00in /  0mm meteobridge W/m2
17:58 80.2 °F /  26.8 °C 45.1 °F /  7.3 °C 29.47in /  997.9hPa SSE 8.1mph /  13km/h 10.0mph /  16.1km/h 29% 0.00in /  0mm meteobridge W/m2
18:04 80.2 °F /  26.8 °C 45.1 °F /  7.3 °C 29.48in /  998.2hPa South 6.0mph /  9.7km/h 14.0mph /  22.5km/h 29% 0.00in /  0mm meteobridge W/m2
18:10 80.1 °F /  26.7 °C 45.0 °F /  7.2 °C 29.48in /  998.2hPa SSW 13.0mph /  20.9km/h 13.0mph /  20.9km/h 29% 0.00in /  0mm meteobridge W/m2
18:16 80.1 °F /  26.7 °C 45.0 °F /  7.2 °C 29.48in /  998.2hPa SE 12.1mph /  19.5km/h 14.0mph /  22.5km/h 29% 0.00in /  0mm meteobridge W/m2
18:40 79.2 °F /  26.2 °C 44.2 °F /  6.8 °C 29.49in /  998.5hPa South 6.0mph /  9.7km/h 11.0mph /  17.7km/h 29% 0.00in /  0mm meteobridge W/m2
18:47 79.2 °F /  26.2 °C 44.2 °F /  6.8 °C 29.50in /  998.9hPa South 6.0mph /  9.7km/h -999.0mph /  -1607.7km/h 29% 0.00in /  0mm meteobridge W/m2
18:53 79.2 °F /  26.2 °C 44.2 °F /  6.8 °C 29.50in /  998.9hPa South 6.0mph /  9.7km/h -999.0mph /  -1607.7km/h 29% 0.00in /  0mm meteobridge W/m2
Regenstein, Windhoek, Namibia
Compliments of Weather Underground - 2.5 mb